sensor_id;sensor_type;location;lat;lon;timestamp;P1;durP1;ratioP1;P2;durP2;ratioP2
1136;SDS011;557;48.466;7.950;2022-12-13T00:01:09;27.50;;;10.40;;
1136;SDS011;557;48.466;7.950;2022-12-13T00:03:57;31.33;;;13.67;;
1136;SDS011;557;48.466;7.950;2022-12-13T00:06:47;34.10;;;15.70;;
1136;SDS011;557;48.466;7.950;2022-12-13T00:09:33;25.33;;;12.33;;
1136;SDS011;557;48.466;7.950;2022-12-13T00:12:19;32.63;;;14.73;;
1136;SDS011;557;48.466;7.950;2022-12-13T00:15:04;23.80;;;10.27;;
1136;SDS011;557;48.466;7.950;2022-12-13T00:17:51;28.33;;;10.50;;
1136;SDS011;557;48.466;7.950;2022-12-13T00:20:38;30.53;;;12.17;;
1136;SDS011;557;48.466;7.950;2022-12-13T00:23:25;29.93;;;11.40;;
1136;SDS011;557;48.466;7.950;2022-12-13T00:26:14;32.63;;;12.87;;
1136;SDS011;557;48.466;7.950;2022-12-13T00:29:01;25.27;;;11.53;;
1136;SDS011;557;48.466;7.950;2022-12-13T00:31:48;31.37;;;12.43;;
1136;SDS011;557;48.466;7.950;2022-12-13T00:34:34;27.03;;;10.40;;
1136;SDS011;557;48.466;7.950;2022-12-13T00:37:20;26.10;;;13.23;;
1136;SDS011;557;48.466;7.950;2022-12-13T00:40:07;22.23;;;13.00;;
1136;SDS011;557;48.466;7.950;2022-12-13T00:42:54;21.93;;;9.47;;
1136;SDS011;557;48.466;7.950;2022-12-13T00:45:39;19.53;;;10.33;;
1136;SDS011;557;48.466;7.950;2022-12-13T00:48:25;22.97;;;10.80;;
1136;SDS011;557;48.466;7.950;2022-12-13T00:51:11;31.30;;;13.67;;
1136;SDS011;557;48.466;7.950;2022-12-13T00:53:57;22.07;;;8.83;;
1136;SDS011;557;48.466;7.950;2022-12-13T00:56:44;29.87;;;13.20;;
1136;SDS011;557;48.466;7.950;2022-12-13T00:59:30;28.40;;;13.00;;
1136;SDS011;557;48.466;7.950;2022-12-13T01:02:16;33.60;;;11.70;;
1136;SDS011;557;48.466;7.950;2022-12-13T01:05:02;38.87;;;13.10;;
1136;SDS011;557;48.466;7.950;2022-12-13T01:07:49;36.93;;;14.37;;
1136;SDS011;557;48.466;7.950;2022-12-13T01:10:35;31.90;;;12.43;;
1136;SDS011;557;48.466;7.950;2022-12-13T01:13:22;27.17;;;13.20;;
1136;SDS011;557;48.466;7.950;2022-12-13T01:16:08;32.57;;;12.17;;
1136;SDS011;557;48.466;7.950;2022-12-13T01:18:55;34.13;;;15.10;;
1136;SDS011;557;48.466;7.950;2022-12-13T01:21:41;37.17;;;13.20;;
1136;SDS011;557;48.466;7.950;2022-12-13T01:24:28;31.80;;;14.30;;
1136;SDS011;557;48.466;7.950;2022-12-13T01:27:13;28.73;;;13.53;;
1136;SDS011;557;48.466;7.950;2022-12-13T01:30:00;38.27;;;15.17;;
1136;SDS011;557;48.466;7.950;2022-12-13T01:32:46;36.93;;;13.17;;
1136;SDS011;557;48.466;7.950;2022-12-13T01:35:32;38.00;;;14.97;;
1136;SDS011;557;48.466;7.950;2022-12-13T01:38:18;45.30;;;15.10;;
1136;SDS011;557;48.466;7.950;2022-12-13T01:41:05;28.47;;;13.53;;
1136;SDS011;557;48.466;7.950;2022-12-13T01:43:52;36.97;;;15.83;;
1136;SDS011;557;48.466;7.950;2022-12-13T01:46:41;34.40;;;13.17;;
1136;SDS011;557;48.466;7.950;2022-12-13T01:50:01;47.17;;;15.60;;
1136;SDS011;557;48.466;7.950;2022-12-13T01:52:49;31.77;;;12.90;;
1136;SDS011;557;48.466;7.950;2022-12-13T01:55:38;36.33;;;15.07;;
1136;SDS011;557;48.466;7.950;2022-12-13T01:58:27;32.23;;;13.90;;
1136;SDS011;557;48.466;7.950;2022-12-13T02:01:14;29.17;;;12.97;;
1136;SDS011;557;48.466;7.950;2022-12-13T02:04:02;33.60;;;15.30;;
1136;SDS011;557;48.466;7.950;2022-12-13T02:06:54;34.90;;;14.43;;
1136;SDS011;557;48.466;7.950;2022-12-13T02:09:41;26.63;;;12.53;;
1136;SDS011;557;48.466;7.950;2022-12-13T02:12:30;29.93;;;14.63;;
1136;SDS011;557;48.466;7.950;2022-12-13T02:15:17;31.90;;;13.20;;
1136;SDS011;557;48.466;7.950;2022-12-13T02:18:13;26.37;;;13.30;;
1136;SDS011;557;48.466;7.950;2022-12-13T02:21:19;20.40;;;10.67;;
1136;SDS011;557;48.466;7.950;2022-12-13T02:24:16;32.50;;;10.80;;
1136;SDS011;557;48.466;7.950;2022-12-13T02:27:39;21.53;;;10.77;;
1136;SDS011;557;48.466;7.950;2022-12-13T02:30:37;33.67;;;10.60;;
1136;SDS011;557;48.466;7.950;2022-12-13T02:33:30;27.90;;;10.90;;
1136;SDS011;557;48.466;7.950;2022-12-13T02:36:27;29.00;;;12.40;;
1136;SDS011;557;48.466;7.950;2022-12-13T02:39:17;31.90;;;10.90;;
1136;SDS011;557;48.466;7.950;2022-12-13T02:42:06;26.20;;;11.10;;
1136;SDS011;557;48.466;7.950;2022-12-13T02:45:00;23.10;;;10.80;;
1136;SDS011;557;48.466;7.950;2022-12-13T02:47:52;19.60;;;8.83;;
1136;SDS011;557;48.466;7.950;2022-12-13T02:50:40;35.00;;;12.10;;
1136;SDS011;557;48.466;7.950;2022-12-13T02:53:27;30.73;;;12.90;;
1136;SDS011;557;48.466;7.950;2022-12-13T02:56:15;25.23;;;10.73;;
1136;SDS011;557;48.466;7.950;2022-12-13T02:59:01;23.53;;;10.37;;
1136;SDS011;557;48.466;7.950;2022-12-13T03:01:52;37.90;;;15.33;;
1136;SDS011;557;48.466;7.950;2022-12-13T03:04:52;26.07;;;13.20;;
1136;SDS011;557;48.466;7.950;2022-12-13T03:08:06;32.83;;;13.33;;
1136;SDS011;557;48.466;7.950;2022-12-13T03:11:03;32.17;;;12.20;;
1136;SDS011;557;48.466;7.950;2022-12-13T03:13:53;35.87;;;12.53;;
1136;SDS011;557;48.466;7.950;2022-12-13T03:16:40;37.03;;;12.80;;
1136;SDS011;557;48.466;7.950;2022-12-13T03:19:28;24.60;;;9.53;;
1136;SDS011;557;48.466;7.950;2022-12-13T03:22:15;29.20;;;12.53;;
1136;SDS011;557;48.466;7.950;2022-12-13T03:25:02;24.63;;;11.40;;
1136;SDS011;557;48.466;7.950;2022-12-13T03:27:48;25.10;;;11.10;;
1136;SDS011;557;48.466;7.950;2022-12-13T03:30:35;26.53;;;10.40;;
1136;SDS011;557;48.466;7.950;2022-12-13T03:33:22;31.67;;;11.90;;
1136;SDS011;557;48.466;7.950;2022-12-13T03:36:08;28.67;;;13.23;;
1136;SDS011;557;48.466;7.950;2022-12-13T03:38:58;24.80;;;10.83;;
1136;SDS011;557;48.466;7.950;2022-12-13T03:41:45;27.53;;;11.37;;
1136;SDS011;557;48.466;7.950;2022-12-13T03:44:31;28.97;;;11.53;;
1136;SDS011;557;48.466;7.950;2022-12-13T03:47:17;26.73;;;12.23;;
1136;SDS011;557;48.466;7.950;2022-12-13T03:50:03;24.37;;;11.70;;
1136;SDS011;557;48.466;7.950;2022-12-13T03:52:49;25.50;;;11.30;;
1136;SDS011;557;48.466;7.950;2022-12-13T03:55:36;22.40;;;8.70;;
1136;SDS011;557;48.466;7.950;2022-12-13T03:58:21;15.93;;;9.40;;
1136;SDS011;557;48.466;7.950;2022-12-13T04:01:08;24.67;;;11.47;;
1136;SDS011;557;48.466;7.950;2022-12-13T04:03:54;33.40;;;12.00;;
1136;SDS011;557;48.466;7.950;2022-12-13T04:06:40;23.30;;;8.20;;
1136;SDS011;557;48.466;7.950;2022-12-13T04:09:26;26.23;;;11.93;;
1136;SDS011;557;48.466;7.950;2022-12-13T04:12:13;37.47;;;13.63;;
1136;SDS011;557;48.466;7.950;2022-12-13T04:15:22;20.33;;;11.30;;
1136;SDS011;557;48.466;7.950;2022-12-13T04:18:07;21.27;;;10.60;;
1136;SDS011;557;48.466;7.950;2022-12-13T04:20:52;27.57;;;12.50;;
1136;SDS011;557;48.466;7.950;2022-12-13T04:23:38;20.63;;;11.10;;
1136;SDS011;557;48.466;7.950;2022-12-13T04:26:23;34.17;;;12.57;;
1136;SDS011;557;48.466;7.950;2022-12-13T04:29:10;21.37;;;11.40;;
1136;SDS011;557;48.466;7.950;2022-12-13T04:31:58;28.27;;;11.83;;
1136;SDS011;557;48.466;7.950;2022-12-13T04:34:43;26.23;;;10.60;;
1136;SDS011;557;48.466;7.950;2022-12-13T04:37:29;34.90;;;12.80;;
1136;SDS011;557;48.466;7.950;2022-12-13T04:40:15;28.27;;;11.23;;
1136;SDS011;557;48.466;7.950;2022-12-13T04:43:01;30.83;;;12.40;;
1136;SDS011;557;48.466;7.950;2022-12-13T04:45:48;25.30;;;11.73;;
1136;SDS011;557;48.466;7.950;2022-12-13T04:48:34;23.43;;;11.53;;
1136;SDS011;557;48.466;7.950;2022-12-13T04:51:20;28.60;;;11.70;;
1136;SDS011;557;48.466;7.950;2022-12-13T04:54:05;33.97;;;10.60;;
1136;SDS011;557;48.466;7.950;2022-12-13T04:56:52;33.83;;;12.73;;
1136;SDS011;557;48.466;7.950;2022-12-13T04:59:37;30.50;;;13.30;;
1136;SDS011;557;48.466;7.950;2022-12-13T05:02:25;32.50;;;13.43;;
1136;SDS011;557;48.466;7.950;2022-12-13T05:05:11;28.13;;;14.00;;
1136;SDS011;557;48.466;7.950;2022-12-13T05:07:57;26.90;;;11.90;;
1136;SDS011;557;48.466;7.950;2022-12-13T05:10:42;26.97;;;12.33;;
1136;SDS011;557;48.466;7.950;2022-12-13T05:13:28;22.57;;;12.20;;
1136;SDS011;557;48.466;7.950;2022-12-13T05:16:14;24.37;;;10.40;;
1136;SDS011;557;48.466;7.950;2022-12-13T05:19:01;27.03;;;11.30;;
1136;SDS011;557;48.466;7.950;2022-12-13T05:21:47;27.17;;;11.90;;
1136;SDS011;557;48.466;7.950;2022-12-13T05:24:33;21.80;;;10.47;;
1136;SDS011;557;48.466;7.950;2022-12-13T05:27:18;31.23;;;10.90;;
1136;SDS011;557;48.466;7.950;2022-12-13T05:30:04;24.93;;;10.33;;
1136;SDS011;557;48.466;7.950;2022-12-13T05:32:50;22.90;;;11.63;;
1136;SDS011;557;48.466;7.950;2022-12-13T05:35:37;20.47;;;9.50;;
1136;SDS011;557;48.466;7.950;2022-12-13T05:38:23;15.37;;;10.00;;
1136;SDS011;557;48.466;7.950;2022-12-13T05:41:08;23.43;;;9.20;;
1136;SDS011;557;48.466;7.950;2022-12-13T05:43:59;26.77;;;10.33;;
1136;SDS011;557;48.466;7.950;2022-12-13T05:46:44;24.30;;;12.80;;
1136;SDS011;557;48.466;7.950;2022-12-13T05:49:30;21.37;;;10.93;;
1136;SDS011;557;48.466;7.950;2022-12-13T05:52:17;29.87;;;11.70;;
1136;SDS011;557;48.466;7.950;2022-12-13T05:55:05;20.93;;;9.30;;
1136;SDS011;557;48.466;7.950;2022-12-13T05:57:51;25.17;;;12.53;;
1136;SDS011;557;48.466;7.950;2022-12-13T06:00:39;22.13;;;9.47;;
1136;SDS011;557;48.466;7.950;2022-12-13T06:03:25;27.13;;;13.30;;
1136;SDS011;557;48.466;7.950;2022-12-13T06:06:11;19.37;;;8.20;;
1136;SDS011;557;48.466;7.950;2022-12-13T06:09:01;16.33;;;9.87;;
1136;SDS011;557;48.466;7.950;2022-12-13T06:11:47;23.03;;;10.00;;
1136;SDS011;557;48.466;7.950;2022-12-13T06:14:33;26.50;;;9.43;;
1136;SDS011;557;48.466;7.950;2022-12-13T06:17:19;36.40;;;14.87;;
1136;SDS011;557;48.466;7.950;2022-12-13T06:20:10;24.27;;;9.70;;
1136;SDS011;557;48.466;7.950;2022-12-13T06:22:57;24.43;;;12.30;;
1136;SDS011;557;48.466;7.950;2022-12-13T06:25:44;21.67;;;12.10;;
1136;SDS011;557;48.466;7.950;2022-12-13T06:28:30;18.83;;;9.13;;
1136;SDS011;557;48.466;7.950;2022-12-13T06:31:16;20.97;;;10.17;;
1136;SDS011;557;48.466;7.950;2022-12-13T06:34:01;27.37;;;11.20;;
1136;SDS011;557;48.466;7.950;2022-12-13T06:36:47;25.37;;;13.20;;
1136;SDS011;557;48.466;7.950;2022-12-13T06:39:33;28.63;;;12.97;;
1136;SDS011;557;48.466;7.950;2022-12-13T06:42:20;18.93;;;9.43;;
1136;SDS011;557;48.466;7.950;2022-12-13T06:45:06;32.03;;;11.67;;
1136;SDS011;557;48.466;7.950;2022-12-13T06:47:52;32.80;;;12.47;;
1136;SDS011;557;48.466;7.950;2022-12-13T06:50:39;31.33;;;13.10;;
1136;SDS011;557;48.466;7.950;2022-12-13T06:53:25;43.43;;;12.43;;
1136;SDS011;557;48.466;7.950;2022-12-13T07:00:29;30.70;;;10.53;;
1136;SDS011;557;48.466;7.950;2022-12-13T07:03:20;23.67;;;10.50;;
1136;SDS011;557;48.466;7.950;2022-12-13T07:06:06;19.17;;;9.10;;
1136;SDS011;557;48.466;7.950;2022-12-13T07:12:20;36.87;;;12.57;;
1136;SDS011;557;48.466;7.950;2022-12-13T07:15:09;27.23;;;13.30;;
1136;SDS011;557;48.466;7.950;2022-12-13T07:17:54;26.00;;;11.00;;
1136;SDS011;557;48.466;7.950;2022-12-13T07:20:40;24.43;;;9.73;;
1136;SDS011;557;48.466;7.950;2022-12-13T07:23:41;39.00;;;14.67;;
1136;SDS011;557;48.466;7.950;2022-12-13T07:33:47;30.80;;;13.00;;
1136;SDS011;557;48.466;7.950;2022-12-13T07:40:13;28.83;;;11.20;;
1136;SDS011;557;48.466;7.950;2022-12-13T07:42:58;33.30;;;14.33;;
1136;SDS011;557;48.466;7.950;2022-12-13T07:50:06;35.50;;;10.90;;
1136;SDS011;557;48.466;7.950;2022-12-13T07:56:40;21.57;;;8.27;;
1136;SDS011;557;48.466;7.950;2022-12-13T08:02:36;22.27;;;9.93;;
1136;SDS011;557;48.466;7.950;2022-12-13T08:05:22;28.10;;;12.47;;
1136;SDS011;557;48.466;7.950;2022-12-13T08:08:08;22.90;;;10.67;;
1136;SDS011;557;48.466;7.950;2022-12-13T08:11:19;19.93;;;9.00;;
1136;SDS011;557;48.466;7.950;2022-12-13T08:14:04;32.70;;;11.43;;
1136;SDS011;557;48.466;7.950;2022-12-13T08:16:50;26.27;;;10.60;;
1136;SDS011;557;48.466;7.950;2022-12-13T08:19:37;35.27;;;10.53;;
1136;SDS011;557;48.466;7.950;2022-12-13T08:22:30;22.33;;;9.70;;
1136;SDS011;557;48.466;7.950;2022-12-13T08:25:17;23.20;;;9.80;;
1136;SDS011;557;48.466;7.950;2022-12-13T08:28:03;28.37;;;13.97;;
1136;SDS011;557;48.466;7.950;2022-12-13T08:30:49;26.07;;;12.50;;
1136;SDS011;557;48.466;7.950;2022-12-13T08:36:49;36.83;;;15.23;;
1136;SDS011;557;48.466;7.950;2022-12-13T08:43:16;36.50;;;13.40;;
1136;SDS011;557;48.466;7.950;2022-12-13T08:46:02;21.77;;;12.47;;
1136;SDS011;557;48.466;7.950;2022-12-13T08:48:52;31.97;;;14.10;;
1136;SDS011;557;48.466;7.950;2022-12-13T08:51:38;20.50;;;10.87;;
1136;SDS011;557;48.466;7.950;2022-12-13T08:54:24;24.97;;;11.37;;
1136;SDS011;557;48.466;7.950;2022-12-13T09:00:21;29.70;;;14.90;;
1136;SDS011;557;48.466;7.950;2022-12-13T09:03:07;24.23;;;11.60;;
1136;SDS011;557;48.466;7.950;2022-12-13T09:05:53;22.90;;;12.00;;
1136;SDS011;557;48.466;7.950;2022-12-13T09:08:38;32.67;;;11.87;;
1136;SDS011;557;48.466;7.950;2022-12-13T09:11:25;21.17;;;9.07;;
1136;SDS011;557;48.466;7.950;2022-12-13T09:14:10;25.70;;;11.77;;
1136;SDS011;557;48.466;7.950;2022-12-13T09:16:58;26.23;;;12.97;;
1136;SDS011;557;48.466;7.950;2022-12-13T09:19:45;22.80;;;10.93;;
1136;SDS011;557;48.466;7.950;2022-12-13T09:22:30;18.33;;;9.90;;
1136;SDS011;557;48.466;7.950;2022-12-13T09:25:16;23.60;;;11.57;;
1136;SDS011;557;48.466;7.950;2022-12-13T09:28:02;26.00;;;11.77;;
1136;SDS011;557;48.466;7.950;2022-12-13T09:31:08;22.93;;;10.90;;
1136;SDS011;557;48.466;7.950;2022-12-13T09:33:56;26.83;;;12.53;;
1136;SDS011;557;48.466;7.950;2022-12-13T09:36:41;19.60;;;10.77;;
1136;SDS011;557;48.466;7.950;2022-12-13T09:39:27;23.07;;;11.17;;
1136;SDS011;557;48.466;7.950;2022-12-13T09:42:33;26.73;;;9.70;;
1136;SDS011;557;48.466;7.950;2022-12-13T09:45:20;23.53;;;11.67;;
1136;SDS011;557;48.466;7.950;2022-12-13T09:48:06;23.53;;;12.93;;
1136;SDS011;557;48.466;7.950;2022-12-13T09:54:01;21.20;;;11.80;;
1136;SDS011;557;48.466;7.950;2022-12-13T10:00:07;21.33;;;9.10;;
1136;SDS011;557;48.466;7.950;2022-12-13T10:06:11;30.67;;;13.10;;
1136;SDS011;557;48.466;7.950;2022-12-13T10:09:00;80.80;;;30.70;;
1136;SDS011;557;48.466;7.950;2022-12-13T10:11:46;30.67;;;13.17;;
1136;SDS011;557;48.466;7.950;2022-12-13T10:14:34;22.70;;;11.40;;
1136;SDS011;557;48.466;7.950;2022-12-13T10:17:24;20.90;;;11.77;;
1136;SDS011;557;48.466;7.950;2022-12-13T10:20:15;27.73;;;12.60;;
1136;SDS011;557;48.466;7.950;2022-12-13T10:26:50;20.97;;;9.70;;
1136;SDS011;557;48.466;7.950;2022-12-13T10:29:56;24.77;;;11.37;;
1136;SDS011;557;48.466;7.950;2022-12-13T10:36:30;28.53;;;12.17;;
1136;SDS011;557;48.466;7.950;2022-12-13T10:39:18;30.23;;;14.60;;
1136;SDS011;557;48.466;7.950;2022-12-13T10:42:40;26.57;;;11.57;;
1136;SDS011;557;48.466;7.950;2022-12-13T10:45:25;28.10;;;13.87;;
1136;SDS011;557;48.466;7.950;2022-12-13T10:48:16;29.47;;;14.83;;
1136;SDS011;557;48.466;7.950;2022-12-13T10:51:29;24.10;;;13.90;;
1136;SDS011;557;48.466;7.950;2022-12-13T10:57:27;23.07;;;11.87;;
1136;SDS011;557;48.466;7.950;2022-12-13T11:04:25;22.60;;;11.70;;
1136;SDS011;557;48.466;7.950;2022-12-13T11:07:39;25.83;;;12.17;;
1136;SDS011;557;48.466;7.950;2022-12-13T11:13:55;17.87;;;10.20;;
1136;SDS011;557;48.466;7.950;2022-12-13T11:24:08;28.63;;;11.80;;
1136;SDS011;557;48.466;7.950;2022-12-13T11:27:27;27.37;;;14.37;;
1136;SDS011;557;48.466;7.950;2022-12-13T11:30:33;20.80;;;10.67;;
1136;SDS011;557;48.466;7.950;2022-12-13T11:33:31;26.17;;;13.93;;
1136;SDS011;557;48.466;7.950;2022-12-13T11:36:29;22.17;;;13.57;;
1136;SDS011;557;48.466;7.950;2022-12-13T11:39:34;24.37;;;12.93;;
1136;SDS011;557;48.466;7.950;2022-12-13T11:42:24;27.03;;;13.47;;
1136;SDS011;557;48.466;7.950;2022-12-13T11:52:26;25.33;;;12.47;;
1136;SDS011;557;48.466;7.950;2022-12-13T11:55:15;26.43;;;12.90;;
1136;SDS011;557;48.466;7.950;2022-12-13T11:58:03;24.80;;;12.43;;
1136;SDS011;557;48.466;7.950;2022-12-13T12:00:56;22.30;;;11.33;;
1136;SDS011;557;48.466;7.950;2022-12-13T12:03:48;28.17;;;14.33;;
1136;SDS011;557;48.466;7.950;2022-12-13T12:06:40;24.93;;;14.60;;
1136;SDS011;557;48.466;7.950;2022-12-13T12:09:35;21.87;;;12.80;;
1136;SDS011;557;48.466;7.950;2022-12-13T12:12:29;26.87;;;13.27;;
1136;SDS011;557;48.466;7.950;2022-12-13T12:15:18;22.57;;;12.83;;
1136;SDS011;557;48.466;7.950;2022-12-13T12:18:09;32.07;;;15.50;;
1136;SDS011;557;48.466;7.950;2022-12-13T12:21:11;26.83;;;13.40;;
1136;SDS011;557;48.466;7.950;2022-12-13T12:24:11;22.50;;;12.30;;
1136;SDS011;557;48.466;7.950;2022-12-13T12:27:12;25.10;;;12.20;;
1136;SDS011;557;48.466;7.950;2022-12-13T12:30:11;28.67;;;14.87;;
1136;SDS011;557;48.466;7.950;2022-12-13T12:33:05;26.53;;;14.77;;
1136;SDS011;557;48.466;7.950;2022-12-13T12:36:08;24.63;;;13.07;;
1136;SDS011;557;48.466;7.950;2022-12-13T12:39:17;20.80;;;12.70;;
1136;SDS011;557;48.466;7.950;2022-12-13T12:45:37;30.03;;;13.67;;
1136;SDS011;557;48.466;7.950;2022-12-13T12:48:42;24.80;;;13.37;;
1136;SDS011;557;48.466;7.950;2022-12-13T12:51:45;25.73;;;13.37;;
1136;SDS011;557;48.466;7.950;2022-12-13T12:54:40;23.77;;;13.00;;
1136;SDS011;557;48.466;7.950;2022-12-13T12:57:34;23.43;;;13.60;;
1136;SDS011;557;48.466;7.950;2022-12-13T13:00:33;32.03;;;14.03;;
1136;SDS011;557;48.466;7.950;2022-12-13T13:03:23;33.33;;;15.10;;
1136;SDS011;557;48.466;7.950;2022-12-13T13:06:11;30.33;;;14.30;;
1136;SDS011;557;48.466;7.950;2022-12-13T13:09:01;22.53;;;12.10;;
1136;SDS011;557;48.466;7.950;2022-12-13T13:11:49;29.10;;;15.10;;
1136;SDS011;557;48.466;7.950;2022-12-13T13:14:35;25.67;;;12.33;;
1136;SDS011;557;48.466;7.950;2022-12-13T13:20:31;26.77;;;12.53;;
1136;SDS011;557;48.466;7.950;2022-12-13T13:23:17;27.13;;;14.47;;
1136;SDS011;557;48.466;7.950;2022-12-13T13:26:04;27.10;;;13.80;;
1136;SDS011;557;48.466;7.950;2022-12-13T13:28:50;25.40;;;14.13;;
1136;SDS011;557;48.466;7.950;2022-12-13T13:31:48;20.20;;;11.57;;
1136;SDS011;557;48.466;7.950;2022-12-13T13:34:40;21.53;;;13.73;;
1136;SDS011;557;48.466;7.950;2022-12-13T13:37:43;24.27;;;12.60;;
1136;SDS011;557;48.466;7.950;2022-12-13T13:40:31;24.50;;;12.40;;
1136;SDS011;557;48.466;7.950;2022-12-13T13:43:26;27.03;;;13.83;;
1136;SDS011;557;48.466;7.950;2022-12-13T13:46:13;23.33;;;11.70;;
1136;SDS011;557;48.466;7.950;2022-12-13T13:48:59;25.80;;;12.33;;
1136;SDS011;557;48.466;7.950;2022-12-13T13:51:57;31.27;;;14.53;;
1136;SDS011;557;48.466;7.950;2022-12-13T13:55:06;24.20;;;13.27;;
1136;SDS011;557;48.466;7.950;2022-12-13T14:05:16;25.80;;;13.20;;
1136;SDS011;557;48.466;7.950;2022-12-13T14:08:29;26.40;;;13.33;;
1136;SDS011;557;48.466;7.950;2022-12-13T14:11:26;26.33;;;13.70;;
1136;SDS011;557;48.466;7.950;2022-12-13T14:14:56;29.80;;;13.60;;
1136;SDS011;557;48.466;7.950;2022-12-13T14:21:24;25.90;;;13.27;;
1136;SDS011;557;48.466;7.950;2022-12-13T14:24:23;25.50;;;13.67;;
1136;SDS011;557;48.466;7.950;2022-12-13T14:27:18;25.50;;;12.90;;
1136;SDS011;557;48.466;7.950;2022-12-13T14:30:17;28.40;;;14.00;;
1136;SDS011;557;48.466;7.950;2022-12-13T14:33:10;24.47;;;13.67;;
1136;SDS011;557;48.466;7.950;2022-12-13T14:36:03;32.17;;;14.50;;
1136;SDS011;557;48.466;7.950;2022-12-13T14:38:48;31.73;;;16.93;;
1136;SDS011;557;48.466;7.950;2022-12-13T14:41:45;29.40;;;14.93;;
1136;SDS011;557;48.466;7.950;2022-12-13T14:44:32;27.23;;;14.20;;
1136;SDS011;557;48.466;7.950;2022-12-13T14:50:35;31.57;;;15.37;;
1136;SDS011;557;48.466;7.950;2022-12-13T14:53:24;28.30;;;14.90;;
1136;SDS011;557;48.466;7.950;2022-12-13T14:56:12;29.07;;;15.37;;
1136;SDS011;557;48.466;7.950;2022-12-13T14:59:00;25.57;;;13.77;;
1136;SDS011;557;48.466;7.950;2022-12-13T15:01:56;24.00;;;13.77;;
1136;SDS011;557;48.466;7.950;2022-12-13T15:04:45;22.17;;;13.87;;
1136;SDS011;557;48.466;7.950;2022-12-13T15:10:21;28.27;;;14.00;;
1136;SDS011;557;48.466;7.950;2022-12-13T15:13:15;26.40;;;12.67;;
1136;SDS011;557;48.466;7.950;2022-12-13T15:16:15;19.60;;;11.93;;
1136;SDS011;557;48.466;7.950;2022-12-13T15:19:06;23.13;;;13.50;;
1136;SDS011;557;48.466;7.950;2022-12-13T15:21:59;28.17;;;15.47;;
1136;SDS011;557;48.466;7.950;2022-12-13T15:24:47;24.63;;;12.57;;
1136;SDS011;557;48.466;7.950;2022-12-13T15:27:33;28.97;;;14.37;;
1136;SDS011;557;48.466;7.950;2022-12-13T15:30:19;31.17;;;15.30;;
1136;SDS011;557;48.466;7.950;2022-12-13T15:33:14;30.60;;;14.80;;
1136;SDS011;557;48.466;7.950;2022-12-13T15:36:03;24.93;;;13.10;;
1136;SDS011;557;48.466;7.950;2022-12-13T15:38:58;28.27;;;14.67;;
1136;SDS011;557;48.466;7.950;2022-12-13T15:41:46;29.43;;;14.13;;
1136;SDS011;557;48.466;7.950;2022-12-13T15:44:36;27.17;;;14.10;;
1136;SDS011;557;48.466;7.950;2022-12-13T15:47:29;28.07;;;14.93;;
1136;SDS011;557;48.466;7.950;2022-12-13T15:53:21;25.43;;;13.90;;
1136;SDS011;557;48.466;7.950;2022-12-13T15:56:28;30.33;;;16.00;;
1136;SDS011;557;48.466;7.950;2022-12-13T15:59:22;29.03;;;15.03;;
1136;SDS011;557;48.466;7.950;2022-12-13T16:02:12;28.00;;;15.10;;
1136;SDS011;557;48.466;7.950;2022-12-13T16:05:04;27.10;;;15.47;;
1136;SDS011;557;48.466;7.950;2022-12-13T16:07:53;36.80;;;16.47;;
1136;SDS011;557;48.466;7.950;2022-12-13T16:10:44;35.30;;;19.30;;
1136;SDS011;557;48.466;7.950;2022-12-13T16:13:31;32.87;;;17.60;;
1136;SDS011;557;48.466;7.950;2022-12-13T16:16:19;36.03;;;16.80;;
1136;SDS011;557;48.466;7.950;2022-12-13T16:19:12;31.03;;;16.03;;
1136;SDS011;557;48.466;7.950;2022-12-13T16:22:02;25.87;;;14.00;;
1136;SDS011;557;48.466;7.950;2022-12-13T16:28:08;34.17;;;18.00;;
1136;SDS011;557;48.466;7.950;2022-12-13T16:30:59;34.53;;;16.60;;
1136;SDS011;557;48.466;7.950;2022-12-13T16:33:53;29.57;;;16.07;;
1136;SDS011;557;48.466;7.950;2022-12-13T16:36:39;32.67;;;15.53;;
1136;SDS011;557;48.466;7.950;2022-12-13T16:39:24;30.33;;;15.30;;
1136;SDS011;557;48.466;7.950;2022-12-13T16:42:12;46.87;;;18.90;;
1136;SDS011;557;48.466;7.950;2022-12-13T16:44:57;28.10;;;16.10;;
1136;SDS011;557;48.466;7.950;2022-12-13T16:47:45;31.93;;;16.50;;
1136;SDS011;557;48.466;7.950;2022-12-13T16:50:32;33.33;;;15.17;;
1136;SDS011;557;48.466;7.950;2022-12-13T16:53:20;27.93;;;15.77;;
1136;SDS011;557;48.466;7.950;2022-12-13T16:56:05;71.97;;;29.37;;
1136;SDS011;557;48.466;7.950;2022-12-13T16:58:55;35.13;;;17.83;;
1136;SDS011;557;48.466;7.950;2022-12-13T17:01:40;37.37;;;17.87;;
1136;SDS011;557;48.466;7.950;2022-12-13T17:04:26;30.70;;;16.13;;
1136;SDS011;557;48.466;7.950;2022-12-13T17:07:12;24.57;;;13.10;;
1136;SDS011;557;48.466;7.950;2022-12-13T17:09:58;28.93;;;13.93;;
1136;SDS011;557;48.466;7.950;2022-12-13T17:12:44;31.23;;;13.43;;
1136;SDS011;557;48.466;7.950;2022-12-13T17:23:32;25.43;;;13.30;;
1136;SDS011;557;48.466;7.950;2022-12-13T17:26:17;32.53;;;16.33;;
1136;SDS011;557;48.466;7.950;2022-12-13T17:29:03;40.00;;;16.77;;
1136;SDS011;557;48.466;7.950;2022-12-13T17:31:48;39.70;;;17.57;;
1136;SDS011;557;48.466;7.950;2022-12-13T17:34:34;40.47;;;17.60;;
1136;SDS011;557;48.466;7.950;2022-12-13T17:37:20;40.07;;;21.17;;
1136;SDS011;557;48.466;7.950;2022-12-13T17:40:08;44.33;;;21.00;;
1136;SDS011;557;48.466;7.950;2022-12-13T17:42:54;32.63;;;17.90;;
1136;SDS011;557;48.466;7.950;2022-12-13T17:45:40;39.30;;;18.30;;
1136;SDS011;557;48.466;7.950;2022-12-13T17:48:26;35.57;;;18.90;;
1136;SDS011;557;48.466;7.950;2022-12-13T17:51:13;47.97;;;19.13;;
1136;SDS011;557;48.466;7.950;2022-12-13T17:53:59;36.50;;;17.37;;
1136;SDS011;557;48.466;7.950;2022-12-13T17:56:46;34.57;;;15.27;;
1136;SDS011;557;48.466;7.950;2022-12-13T17:59:33;35.67;;;17.40;;
1136;SDS011;557;48.466;7.950;2022-12-13T18:02:22;30.10;;;18.10;;
1136;SDS011;557;48.466;7.950;2022-12-13T18:05:08;44.43;;;20.00;;
1136;SDS011;557;48.466;7.950;2022-12-13T18:07:55;31.80;;;18.97;;
1136;SDS011;557;48.466;7.950;2022-12-13T18:10:40;35.33;;;18.77;;
1136;SDS011;557;48.466;7.950;2022-12-13T18:13:27;33.75;;;17.20;;
1136;SDS011;557;48.466;7.950;2022-12-13T18:16:13;38.73;;;19.10;;
1136;SDS011;557;48.466;7.950;2022-12-13T18:19:01;40.80;;;19.77;;
1136;SDS011;557;48.466;7.950;2022-12-13T18:21:48;36.03;;;17.73;;
1136;SDS011;557;48.466;7.950;2022-12-13T18:24:34;32.70;;;16.80;;
1136;SDS011;557;48.466;7.950;2022-12-13T18:27:20;30.07;;;16.13;;
1136;SDS011;557;48.466;7.950;2022-12-13T18:30:07;36.93;;;18.57;;
1136;SDS011;557;48.466;7.950;2022-12-13T18:32:54;34.07;;;18.87;;
1136;SDS011;557;48.466;7.950;2022-12-13T18:35:40;31.87;;;16.37;;
1136;SDS011;557;48.466;7.950;2022-12-13T18:38:28;29.10;;;17.63;;
1136;SDS011;557;48.466;7.950;2022-12-13T18:41:15;37.03;;;17.07;;
1136;SDS011;557;48.466;7.950;2022-12-13T18:44:03;35.80;;;19.27;;
1136;SDS011;557;48.466;7.950;2022-12-13T18:46:52;32.27;;;17.20;;
1136;SDS011;557;48.466;7.950;2022-12-13T18:49:38;29.93;;;15.13;;
1136;SDS011;557;48.466;7.950;2022-12-13T18:52:24;41.77;;;17.30;;
1136;SDS011;557;48.466;7.950;2022-12-13T18:55:09;29.83;;;15.83;;
1136;SDS011;557;48.466;7.950;2022-12-13T18:58:13;32.83;;;16.43;;
1136;SDS011;557;48.466;7.950;2022-12-13T19:04:14;38.53;;;16.73;;
1136;SDS011;557;48.466;7.950;2022-12-13T19:07:00;46.63;;;23.63;;
1136;SDS011;557;48.466;7.950;2022-12-13T19:09:45;30.27;;;15.63;;
1136;SDS011;557;48.466;7.950;2022-12-13T19:12:31;37.93;;;15.90;;
1136;SDS011;557;48.466;7.950;2022-12-13T19:15:17;30.10;;;15.30;;
1136;SDS011;557;48.466;7.950;2022-12-13T19:18:03;30.77;;;15.73;;
1136;SDS011;557;48.466;7.950;2022-12-13T19:20:50;35.30;;;17.33;;
1136;SDS011;557;48.466;7.950;2022-12-13T19:23:37;31.63;;;14.57;;